Time;durP1;ratioP1;P1;durP2;ratioP2;P2;SDS_P1;SDS_P2;PMS_P1;PMS_P2;Temp;Humidity;BMP_temperature;BMP_pressure;BME280_temperature;BME280_humidity;BME280_pressure;Samples;Min_cycle;Max_cycle;Signal;HPM_P1;HPM_P2
2021/08/20 00:01:31;;;;;;;;;;;;;;;16.80;73.30;96503.06;5095770;28;20001;-77
2021/08/20 00:03:58;;;;;;;;;;;;;;;16.79;73.82;96500.66;5095240;28;19968;-77
2021/08/20 00:06:24;;;;;;;;;;;;;;;16.78;73.74;96502.50;5094657;28;19963;-77
2021/08/20 00:08:50;;;;;;;;;;;;;;;16.78;73.67;96499.06;5094229;28;20034;-77
2021/08/20 00:11:17;;;;;;;;;;;;;;;16.79;73.88;96498.00;5094281;28;19959;-77
2021/08/20 00:13:43;;;;;;;;;;;;;;;16.76;73.55;96504.63;5094821;28;19979;-77
2021/08/20 00:16:08;;;;;;;;;;;;;;;16.75;73.41;96512.81;5094169;28;19979;-77
2021/08/20 00:18:34;;;;;;;;;;;;;;;16.75;72.54;96518.88;5094925;28;20049;-77
2021/08/20 00:21:01;;;;;;;;;;;;;;;16.74;72.23;96509.38;5094762;28;19993;-77
2021/08/20 00:23:27;;;;;;;;;;;;;;;16.76;72.46;96507.25;5095332;28;19963;-77
2021/08/20 00:25:53;;;;;;;;;;;;;;;16.76;72.05;96509.13;5094783;28;19964;-77
2021/08/20 00:28:19;;;;;;;;;;;;;;;16.74;72.75;96514.66;5094659;28;20391;-77
2021/08/20 00:30:46;;;;;;;;;;;;;;;16.75;73.24;96510.94;5094816;28;19951;-77
2021/08/20 00:33:12;;;;;;;;;;;;;;;16.74;73.50;96508.56;5094730;28;19982;-77
2021/08/20 00:35:38;;;;;;;;;;;;;;;16.74;73.27;96509.38;5094756;28;19950;-77
2021/08/20 00:38:04;;;;;;;;;;;;;;;16.74;73.67;96512.00;5094808;28;19988;-77
2021/08/20 00:40:30;;;;;;;;;;;;;;;16.73;74.00;96522.84;5094455;28;20612;-77
2021/08/20 00:42:56;;;;;;;;;;;;;;;16.69;73.74;96505.88;5078022;28;19955;-77
2021/08/20 00:45:22;;;;;;;;;;;;;;;16.66;73.78;96507.19;5093643;28;19955;-77
2021/08/20 00:47:48;;;;;;;;;;;;;;;16.65;73.93;96513.53;5094592;28;20004;-77
2021/08/20 00:50:13;;;;;;;;;;;;;;;16.64;74.07;96517.25;5093713;28;19964;-77
2021/08/20 00:52:39;;;;;;;;;;;;;;;16.63;74.08;96513.81;5094188;28;20025;-77
2021/08/20 00:55:06;;;;;;;;;;;;;;;16.63;74.45;96513.81;5093114;28;20330;-77
2021/08/20 00:57:31;;;;;;;;;;;;;;;16.62;74.49;96506.09;5094702;28;19981;-77
2021/08/20 00:59:57;;;;;;;;;;;;;;;16.61;74.05;96504.53;5094412;28;20413;-77
2021/08/20 01:02:23;;;;;;;;;;;;;;;16.59;75.05;96496.81;5093606;28;19958;-77
2021/08/20 01:04:49;;;;;;;;;;;;;;;16.59;74.92;96503.97;5094161;28;19995;-77
2021/08/20 01:07:17;;;;;;;;;;;;;;;16.59;74.44;96496.03;5094100;28;19988;-77
2021/08/20 01:09:45;;;;;;;;;;;;;;;16.59;74.21;96496.03;5094049;28;19959;-77
2021/08/20 01:12:11;;;;;;;;;;;;;;;16.57;74.09;96496.28;5094071;28;19965;-77
2021/08/20 01:14:37;;;;;;;;;;;;;;;16.59;74.08;96506.63;5093074;28;20434;-77
2021/08/20 01:17:04;;;;;;;;;;;;;;;16.56;74.19;96504.47;5094323;28;20001;-77
2021/08/20 01:19:31;;;;;;;;;;;;;;;16.53;74.22;96502.34;5093125;28;19965;-77
2021/08/20 01:21:57;;;;;;;;;;;;;;;16.52;74.50;96490.94;5093334;28;19986;-77
2021/08/20 01:24:23;;;;;;;;;;;;;;;16.51;74.54;96499.94;5093808;28;20453;-77
2021/08/20 01:26:50;;;;;;;;;;;;;;;16.51;74.18;96493.84;5093897;28;19964;-77
2021/08/20 01:29:17;;;;;;;;;;;;;;;16.50;74.20;96490.38;5093499;28;19956;-77
2021/08/20 01:31:46;;;;;;;;;;;;;;;16.48;74.49;96495.13;5093625;28;19957;-77
2021/08/20 01:34:13;;;;;;;;;;;;;;;16.48;74.28;96494.34;5093784;28;19969;-77
2021/08/20 01:36:39;;;;;;;;;;;;;;;16.47;74.60;96495.41;5093509;28;20401;-77
2021/08/20 01:39:05;;;;;;;;;;;;;;;16.46;75.22;96507.03;5093031;28;20414;-77
2021/08/20 01:41:31;;;;;;;;;;;;;;;16.46;74.99;96499.09;5093882;28;19958;-77
2021/08/20 01:43:58;;;;;;;;;;;;;;;16.44;74.48;96496.69;5092819;28;19954;-77
2021/08/20 01:46:28;;;;;;;;;;;;;;;16.42;74.86;96498.81;5093676;28;19951;-77
2021/08/20 01:48:55;;;;;;;;;;;;;;;16.40;74.71;96493.78;5093092;28;19956;-77
2021/08/20 01:51:22;;;;;;;;;;;;;;;16.38;74.72;96498.53;5093835;28;19963;-77
2021/08/20 01:53:49;;;;;;;;;;;;;;;16.38;74.59;96487.94;5093487;28;20323;-77
2021/08/20 01:56:18;;;;;;;;;;;;;;;16.37;74.95;96496.13;5093519;28;20330;-77
2021/08/20 01:58:45;;;;;;;;;;;;;;;16.39;74.80;96504.63;5093728;28;19954;-77
2021/08/20 02:01:11;;;;;;;;;;;;;;;16.38;75.05;96498.53;5093606;28;20439;-77
2021/08/20 02:03:37;;;;;;;;;;;;;;;16.37;74.78;96504.06;5097412;28;20400;-77
2021/08/20 02:06:03;;;;;;;;;;;;;;;16.37;74.87;96494.28;5097503;28;19966;-77
2021/08/20 02:08:29;;;;;;;;;;;;;;;16.37;75.13;96496.13;5097489;28;19998;-77
2021/08/20 02:10:55;;;;;;;;;;;;;;;16.36;75.11;96498.00;5097601;28;19962;-77
2021/08/20 02:13:21;;;;;;;;;;;;;;;16.35;75.00;96496.38;5078366;28;19976;-77
2021/08/20 02:15:47;;;;;;;;;;;;;;;16.36;75.09;96494.56;5097340;28;19960;-77
2021/08/20 02:18:13;;;;;;;;;;;;;;;16.36;75.19;96495.34;5097269;28;19963;-77
2021/08/20 02:20:40;;;;;;;;;;;;;;;16.37;75.11;96501.41;5097077;28;19962;-77
2021/08/20 02:23:07;;;;;;;;;;;;;;;16.37;75.12;96499.56;5096871;28;20411;-77
2021/08/20 02:25:33;;;;;;;;;;;;;;;16.38;75.18;96501.19;5097248;28;19970;-77
2021/08/20 02:27:59;;;;;;;;;;;;;;;16.38;75.48;96500.38;5097121;28;19962;-77
2021/08/20 02:30:25;;;;;;;;;;;;;;;16.38;75.70;96506.47;5097035;28;20349;-77
2021/08/20 02:32:51;;;;;;;;;;;;;;;16.39;75.91;96505.41;5096846;28;19986;-77
2021/08/20 02:35:17;;;;;;;;;;;;;;;16.40;75.52;96503.56;5096887;28;20327;-77
2021/08/20 02:37:43;;;;;;;;;;;;;;;16.39;75.89;96501.97;5095308;28;19964;-77
2021/08/20 02:40:09;;;;;;;;;;;;;;;16.38;75.60;96501.19;5096916;28;20381;-77
2021/08/20 02:42:35;;;;;;;;;;;;;;;16.39;75.79;96502.75;5095964;28;19964;-77
2021/08/20 02:45:01;;;;;;;;;;;;;;;16.40;75.73;96503.56;5096699;28;19964;-77
2021/08/20 02:47:27;;;;;;;;;;;;;;;16.39;75.95;96497.47;5096918;28;19965;-77
2021/08/20 02:49:53;;;;;;;;;;;;;;;16.39;76.00;96504.63;5095526;28;19961;-77
2021/08/20 02:52:19;;;;;;;;;;;;;;;16.39;75.74;96508.06;5096993;28;20055;-78
2021/08/20 02:54:44;;;;;;;;;;;;;;;16.39;75.73;96502.75;5096576;28;19987;-77
2021/08/20 02:57:10;;;;;;;;;;;;;;;16.39;75.83;96501.97;5096703;28;19963;-77
2021/08/20 02:59:36;;;;;;;;;;;;;;;16.38;76.08;96505.69;5096859;28;19998;-77
2021/08/20 03:02:02;;;;;;;;;;;;;;;16.37;75.97;96507.50;5095696;28;20012;-78
2021/08/20 03:04:29;;;;;;;;;;;;;;;16.36;75.80;96503.28;5096496;28;19965;-77
2021/08/20 03:06:55;;;;;;;;;;;;;;;16.35;76.10;96501.66;5096514;28;20420;-78
2021/08/20 03:09:21;;;;;;;;;;;;;;;16.35;76.03;96504.31;5095944;28;19966;-77
2021/08/20 03:11:48;;;;;;;;;;;;;;;16.35;75.98;96500.88;5096681;28;19995;-77
2021/08/20 03:14:14;;;;;;;;;;;;;;;16.32;76.00;96504.84;5094475;28;19968;-77
2021/08/20 03:16:40;;;;;;;;;;;;;;;16.32;75.53;96499.53;5095957;28;19962;-78
2021/08/20 03:19:06;;;;;;;;;;;;;;;16.32;75.74;96499.53;5095968;28;20423;-77
2021/08/20 03:21:35;;;;;;;;;;;;;;;16.34;75.87;96501.94;5096001;28;19986;-77
2021/08/20 03:24:13;;;;;;;;;;;;;;;16.34;75.81;96504.59;5132188;27;20432;-78
2021/08/20 03:26:51;;;;;;;;;;;;;;;16.32;76.00;96499.53;5091439;28;19968;-77
2021/08/20 03:29:30;;;;;;;;;;;;;;;16.34;75.83;96494.00;5112018;27;20436;-78
2021/08/20 03:32:07;;;;;;;;;;;;;;;16.33;75.90;96503.78;5091346;28;19965;-77
2021/08/20 03:34:45;;;;;;;;;;;;;;;16.32;75.80;96494.25;5132142;27;20004;-78
2021/08/20 03:37:24;;;;;;;;;;;;;;;16.32;75.74;96496.91;5129691;27;19998;-78
2021/08/20 03:40:02;;;;;;;;;;;;;;;16.32;76.05;96502.19;5091653;28;19975;-77
2021/08/20 03:42:41;;;;;;;;;;;;;;;16.30;76.17;96501.63;5091207;28;19969;-77
2021/08/20 03:45:18;;;;;;;;;;;;;;;16.30;76.26;96503.50;5071355;28;19966;-78
2021/08/20 03:47:57;;;;;;;;;;;;;;;16.29;76.27;96501.88;5132019;27;20005;-77
2021/08/20 03:50:35;;;;;;;;;;;;;;;16.28;75.86;96500.31;5111646;27;19959;-78
2021/08/20 03:53:11;;;;;;;;;;;;;;;16.27;75.92;96499.47;5111983;27;19968;-77
2021/08/20 03:55:49;;;;;;;;;;;;;;;16.27;75.96;96506.63;5091359;28;20353;-77
2021/08/20 03:58:29;;;;;;;;;;;;;;;16.27;75.53;96504.00;5111518;27;19951;-78
2021/08/20 04:01:07;;;;;;;;;;;;;;;16.24;75.29;96506.09;5091438;28;19967;-78
2021/08/20 04:03:44;;;;;;;;;;;;;;;16.26;75.78;96508.50;5112142;27;19963;-78
2021/08/20 04:06:21;;;;;;;;;;;;;;;16.24;75.89;96505.28;5091327;28;19989;-77
2021/08/20 04:08:59;;;;;;;;;;;;;;;16.25;75.81;96512.16;5091609;28;19988;-77
2021/08/20 04:11:38;;;;;;;;;;;;;;;16.27;76.20;96511.94;5112158;27;19959;-77
2021/08/20 04:14:15;;;;;;;;;;;;;;;16.26;76.50;96513.78;5129526;27;20007;-78
2021/08/20 04:16:54;;;;;;;;;;;;;;;16.26;76.33;96508.50;5091221;28;19975;-77
2021/08/20 04:19:21;;;;;;;;;;;;;;;16.24;76.13;96498.16;5091163;28;19962;-77
2021/08/20 04:21:57;;;;;;;;;;;;;;;16.24;75.90;96511.38;5091227;28;19973;-77
2021/08/20 04:24:47;;;;;;;;;;;;;;;16.23;76.29;96508.97;5111566;27;20341;-77
2021/08/20 04:27:26;;;;;;;;;;;;;;;16.22;76.28;96517.97;5111654;27;19965;-77
2021/08/20 04:30:04;;;;;;;;;;;;;;;16.20;75.98;96526.16;5111617;27;19968;-78
2021/08/20 04:32:42;;;;;;;;;;;;;;;16.21;76.17;96526.94;5132231;27;20003;-77
2021/08/20 04:35:20;;;;;;;;;;;;;;;16.20;76.15;96528.00;5111952;27;19961;-78
2021/08/20 04:37:58;;;;;;;;;;;;;;;16.19;76.28;96535.16;5091356;28;19962;-77
2021/08/20 04:40:35;;;;;;;;;;;;;;;16.17;76.28;96528.53;5071721;28;20415;-77
2021/08/20 04:43:13;;;;;;;;;;;;;;;16.15;76.55;96534.06;5091307;28;19973;-77
2021/08/20 04:45:51;;;;;;;;;;;;;;;16.16;77.33;96534.84;5091553;28;19967;-77
2021/08/20 04:48:28;;;;;;;;;;;;;;;16.14;77.62;96532.44;5111616;27;19967;-78
2021/08/20 04:51:06;;;;;;;;;;;;;;;16.11;77.82;96532.97;5130110;27;20009;-78
2021/08/20 04:53:44;;;;;;;;;;;;;;;16.11;77.51;96534.81;5091732;28;20343;-78
2021/08/20 04:56:23;;;;;;;;;;;;;;;16.11;77.94;96543.56;5091610;28;20445;-77
2021/08/20 04:59:02;;;;;;;;;;;;;;;16.14;77.78;96543.03;5123904;27;20014;-77
2021/08/20 05:01:57;;;;;;;;;;;;;;;16.16;78.02;96540.16;5092021;27;20004;-77
2021/08/20 05:04:59;;;;;;;;;;;;;;;16.18;77.92;96549.44;5111742;27;19955;-78
2021/08/20 05:07:58;;;;;;;;;;;;;;;16.21;78.26;96550.75;5107097;28;19969;-78
2021/08/20 05:10:52;;;;;;;;;;;;;;;16.23;77.97;96559.25;5153218;27;20008;-77
2021/08/20 05:13:42;;;;;;;;;;;;;;;16.25;78.50;96559.81;5112195;27;19966;-78
2021/08/20 05:16:39;;;;;;;;;;;;;;;16.27;78.50;96557.69;5115419;27;19964;-78
2021/08/20 05:19:31;;;;;;;;;;;;;;;16.27;78.44;96560.34;5112146;27;19953;-77
2021/08/20 05:22:22;;;;;;;;;;;;;;;16.31;78.58;96560.66;5112563;27;19960;-78
2021/08/20 05:25:19;;;;;;;;;;;;;;;16.34;78.86;96568.09;5112236;27;19998;-77
2021/08/20 05:28:12;;;;;;;;;;;;;;;16.40;78.37;96565.25;5111870;27;20419;-77
2021/08/20 05:30:51;;;;;;;;;;;;;;;16.44;78.69;96573.47;5091501;28;19972;-78
2021/08/20 05:33:29;;;;;;;;;;;;;;;16.44;77.55;96565.53;5091621;28;20432;-78
2021/08/20 05:36:09;;;;;;;;;;;;;;;16.43;77.83;96580.59;5111850;27;19963;-77
2021/08/20 05:38:47;;;;;;;;;;;;;;;16.44;77.82;96578.75;5091264;28;19967;-77
2021/08/20 05:41:25;;;;;;;;;;;;;;;16.47;77.31;96572.19;5128122;27;20443;-77
2021/08/20 05:44:02;;;;;;;;;;;;;;;16.46;77.07;96581.16;5091402;28;19971;-78
2021/08/20 05:46:40;;;;;;;;;;;;;;;16.44;77.06;96578.75;5125626;27;20057;-77
2021/08/20 05:49:16;;;;;;;;;;;;;;;16.47;77.45;96582.78;5128806;27;20012;-77
2021/08/20 05:51:55;;;;;;;;;;;;;;;16.51;77.63;96586.50;5111651;27;20429;-77
2021/08/20 05:54:35;;;;;;;;;;;;;;;16.54;78.09;96586.00;5091356;28;19967;-77
2021/08/20 05:57:14;;;;;;;;;;;;;;;16.60;78.24;96592.94;5091316;28;20310;-77
2021/08/20 05:59:51;;;;;;;;;;;;;;;16.62;77.57;96596.91;5111602;27;19963;-78
2021/08/20 06:02:29;;;;;;;;;;;;;;;16.62;77.13;96593.47;5112050;27;19962;-78
2021/08/20 06:05:08;;;;;;;;;;;;;;;16.67;76.59;96598.00;5131606;27;20441;-78
2021/08/20 06:07:46;;;;;;;;;;;;;;;16.72;76.72;96593.56;5132076;27;20449;-77
2021/08/20 06:10:22;;;;;;;;;;;;;;;16.79;76.51;96601.28;5111562;27;19959;-77
2021/08/20 06:13:02;;;;;;;;;;;;;;;16.93;76.86;96607.78;5111958;27;19965;-78
2021/08/20 06:15:40;;;;;;;;;;;;;;;16.99;76.18;96603.34;5132083;27;20361;-78
2021/08/20 06:18:18;;;;;;;;;;;;;;;16.98;76.15;96599.88;5132027;27;20752;-78
2021/08/20 06:20:57;;;;;;;;;;;;;;;16.96;75.76;96606.47;5091216;28;19965;-77
2021/08/20 06:23:33;;;;;;;;;;;;;;;16.95;76.35;96610.19;5127997;27;20029;-77
2021/08/20 06:26:11;;;;;;;;;;;;;;;16.93;76.17;96601.69;5091427;28;19975;-77
2021/08/20 06:28:50;;;;;;;;;;;;;;;16.99;76.84;96606.78;5091800;28;19969;-77
2021/08/20 06:31:26;;;;;;;;;;;;;;;17.08;76.93;96603.66;5091195;28;19962;-77
2021/08/20 06:34:03;;;;;;;;;;;;;;;17.19;76.35;96597.34;5091619;28;19968;-78
2021/08/20 06:36:42;;;;;;;;;;;;;;;17.29;75.65;96600.06;5091226;28;20446;-78
2021/08/20 06:39:19;;;;;;;;;;;;;;;17.48;75.70;96591.69;5071552;28;19984;-77
2021/08/20 06:41:59;;;;;;;;;;;;;;;17.79;73.89;96597.91;5111610;27;20324;-77
2021/08/20 06:44:37;;;;;;;;;;;;;;;18.16;73.27;96599.63;5111729;27;19960;-77
2021/08/20 06:47:16;;;;;;;;;;;;;;;18.65;72.29;96597.28;5132160;27;20005;-78
2021/08/20 06:49:55;;;;;;;;;;;;;;;18.85;70.97;96601.03;5091739;28;19962;-77
2021/08/20 06:52:33;;;;;;;;;;;;;;;18.96;68.78;96597.31;5125211;27;20434;-77
2021/08/20 06:55:10;;;;;;;;;;;;;;;18.94;70.08;96604.75;5091311;28;19976;-77
2021/08/20 06:57:48;;;;;;;;;;;;;;;19.17;70.19;96603.41;5111734;27;19970;-77
2021/08/20 07:00:27;;;;;;;;;;;;;;;19.41;69.03;96592.16;5091461;28;19967;-77
2021/08/20 07:03:05;;;;;;;;;;;;;;;19.83;67.27;96590.97;5091662;28;19965;-77
2021/08/20 07:05:43;;;;;;;;;;;;;;;20.10;65.91;96584.47;5091156;28;19980;-77
2021/08/20 07:08:21;;;;;;;;;;;;;;;20.49;64.13;96576.44;5111898;27;19966;-77
2021/08/20 07:10:59;;;;;;;;;;;;;;;20.79;63.30;96570.13;5091705;28;19963;-77
2021/08/20 07:13:51;;;;;;;;;;;;;;;21.13;61.08;96569.25;5111583;27;19961;-77
2021/08/20 07:16:29;;;;;;;;;;;;;;;21.46;59.61;96558.78;5071495;28;19972;-77
2021/08/20 07:19:08;;;;;;;;;;;;;;;21.63;61.53;96572.47;5111681;27;19970;-77
2021/08/20 07:21:58;;;;;;;;;;;;;;;21.75;60.34;96563.25;5111801;27;19973;-77
2021/08/20 07:24:36;;;;;;;;;;;;;;;21.81;58.07;96548.75;5091422;28;19971;-77
2021/08/20 07:27:14;;;;;;;;;;;;;;;21.62;59.83;96562.84;5129808;27;20004;-77
2021/08/20 07:29:50;;;;;;;;;;;;;;;21.77;60.41;96569.09;5091358;28;20324;-77
2021/08/20 07:32:29;;;;;;;;;;;;;;;21.85;61.22;96579.13;5111786;27;19968;-77
2021/08/20 07:35:07;;;;;;;;;;;;;;;21.88;61.20;96582.03;5071126;28;19963;-76
2021/08/20 07:37:45;;;;;;;;;;;;;;;21.66;60.19;96571.09;5091163;28;20440;-77
2021/08/20 07:40:35;;;;;;;;;;;;;;;21.47;60.42;96571.84;5112042;27;19965;-76
2021/08/20 07:43:13;;;;;;;;;;;;;;;21.55;61.98;96589.09;5111609;27;19989;-76
2021/08/20 07:45:51;;;;;;;;;;;;;;;21.79;60.32;96575.72;5111478;27;19966;-77
2021/08/20 07:48:30;;;;;;;;;;;;;;;22.08;58.45;96574.81;5091433;28;19968;-76
2021/08/20 07:51:08;;;;;;;;;;;;;;;22.34;59.52;96582.50;5144597;27;20019;-77
2021/08/20 07:53:46;;;;;;;;;;;;;;;22.56;59.62;96584.56;5131906;27;20002;-77
2021/08/20 07:56:22;;;;;;;;;;;;;;;22.68;57.48;96563.53;5048870;27;2376899;-76
2021/08/20 07:59:04;;;;;;;;;;;;;;;22.45;57.33;96566.03;5091242;28;19957;-76
2021/08/20 08:01:42;;;;;;;;;;;;;;;22.14;58.51;96578.22;5091391;28;19985;-76
2021/08/20 08:04:35;;;;;;;;;;;;;;;22.22;58.89;96583.72;5111892;27;19961;-77
2021/08/20 08:07:29;;;;;;;;;;;;;;;22.13;58.59;96580.06;5120326;27;20365;-77
2021/08/20 08:10:25;;;;;;;;;;;;;;;22.17;59.05;96581.09;5131868;27;20459;-78
2021/08/20 08:13:24;;;;;;;;;;;;;;;22.28;59.09;96585.25;5112054;27;20468;-76
2021/08/20 08:16:14;;;;;;;;;;;;;;;22.24;54.73;96554.06;5111868;27;19963;-76
2021/08/20 08:19:08;;;;;;;;;;;;;;;22.22;57.00;96574.91;5112019;27;20420;-76
2021/08/20 08:22:03;;;;;;;;;;;;;;;22.36;57.91;96589.13;5153057;27;19981;-76
2021/08/20 08:24:56;;;;;;;;;;;;;;;22.57;57.80;96588.81;5112023;27;20396;-76
2021/08/20 08:27:56;;;;;;;;;;;;;;;22.70;57.32;96574.72;5098598;28;20383;-76
2021/08/20 08:30:50;;;;;;;;;;;;;;;22.85;54.39;96555.75;5127962;27;19977;-76
2021/08/20 08:33:41;;;;;;;;;;;;;;;22.83;54.82;96563.28;5126204;27;19961;-76
2021/08/20 08:36:35;;;;;;;;;;;;;;;22.82;53.33;96548.28;5112104;27;19969;-76
2021/08/20 08:39:44;;;;;;;;;;;;;;;22.85;54.29;96561.09;5150286;27;19966;-77
2021/08/20 08:42:36;;;;;;;;;;;;;;;22.93;54.62;96564.97;5112237;27;19965;-76
2021/08/20 08:45:27;;;;;;;;;;;;;;;22.85;54.44;96560.31;5131151;27;19964;-76
2021/08/20 08:48:10;;;;;;;;;;;;;;;22.74;52.49;96542.84;5071108;28;19963;-76
2021/08/20 08:50:48;;;;;;;;;;;;;;;22.63;54.29;96567.06;5131531;27;19992;-77
2021/08/20 08:53:26;;;;;;;;;;;;;;;22.82;55.31;96575.03;5111987;27;20324;-76
2021/08/20 08:56:05;;;;;;;;;;;;;;;23.07;54.12;96551.66;5111706;27;19963;-75
2021/08/20 08:58:42;;;;;;;;;;;;;;;23.35;53.40;96546.31;5126413;27;20017;-76
2021/08/20 09:01:30;;;;;;;;;;;;;;;23.63;51.81;96531.81;5131294;27;20021;-77
2021/08/20 09:04:25;;;;;;;;;;;;;;;23.79;52.35;96539.56;5061944;27;2008127;-76
2021/08/20 09:07:01;;;;;;;;;;;;;;;23.78;54.14;96560.19;5043113;27;2005760;-76
2021/08/20 09:09:38;;;;;;;;;;;;;;;23.71;51.71;96539.16;5091261;28;19976;-76
2021/08/20 09:12:26;;;;;;;;;;;;;;;23.59;54.20;96552.25;5153229;27;19964;-76
2021/08/20 09:15:04;;;;;;;;;;;;;;;23.54;53.10;96551.56;5127330;27;20393;-77
2021/08/20 09:17:49;;;;;;;;;;;;;;;23.37;55.78;96569.03;5111793;27;19975;-76
2021/08/20 09:20:28;;;;;;;;;;;;;;;23.25;54.99;96566.81;5091780;28;19976;-76
2021/08/20 09:23:20;;;;;;;;;;;;;;;23.28;55.15;96563.53;5128988;27;20435;-76
2021/08/20 09:25:57;;;;;;;;;;;;;;;23.40;55.42;96562.28;5106977;27;20331;-76
2021/08/20 09:28:36;;;;;;;;;;;;;;;23.52;54.49;96562.56;5111787;27;19964;-76
2021/08/20 09:31:14;;;;;;;;;;;;;;;23.61;55.29;96558.09;5111793;27;19971;-76
2021/08/20 09:33:52;;;;;;;;;;;;;;;23.67;54.56;96559.59;5111759;27;19974;-77
2021/08/20 09:36:38;;;;;;;;;;;;;;;23.76;52.47;96538.28;5091213;28;19978;-76
2021/08/20 09:39:24;;;;;;;;;;;;;;;23.84;52.44;96540.25;5062966;27;1980000;-76
2021/08/20 09:42:13;;;;;;;;;;;;;;;23.76;54.26;96558.88;5111876;27;19968;-76
2021/08/20 09:45:09;;;;;;;;;;;;;;;23.56;51.33;96526.09;5132156;27;20452;-76
2021/08/20 09:47:50;;;;;;;;;;;;;;;23.30;55.13;96564.03;5112081;27;19971;-76
2021/08/20 09:50:54;;;;;;;;;;;;;;;23.13;55.44;96573.75;5111935;27;19965;-76
2021/08/20 09:53:31;;;;;;;;;;;;;;;22.95;55.39;96570.00;5112162;27;19954;-76
2021/08/20 09:56:10;;;;;;;;;;;;;;;22.82;55.88;96569.69;5131489;27;20020;-76
2021/08/20 09:58:48;;;;;;;;;;;;;;;22.70;55.80;96569.38;5131999;27;20423;-76
2021/08/20 10:01:27;;;;;;;;;;;;;;;22.66;56.16;96579.84;5124663;27;20012;-76
2021/08/20 10:04:06;;;;;;;;;;;;;;;22.64;56.32;96584.69;5091533;28;20438;-76
2021/08/20 10:06:45;;;;;;;;;;;;;;;22.63;56.99;96587.66;5126523;27;20011;-76
2021/08/20 10:09:22;;;;;;;;;;;;;;;22.74;54.54;96562.38;5111639;27;19967;-76
2021/08/20 10:12:01;;;;;;;;;;;;;;;23.06;55.06;96564.22;5111565;27;19964;-76
2021/08/20 10:14:40;;;;;;;;;;;;;;;23.21;52.26;96533.72;5111939;27;20434;-76
2021/08/20 10:17:07;;;;;;;;;;;;;;;23.32;52.28;96530.84;5111074;28;19967;-76
2021/08/20 10:19:34;;;;;;;;;;;;;;;23.30;53.16;96539.19;5111660;28;19957;-76
2021/08/20 10:22:00;;;;;;;;;;;;;;;23.34;54.41;96555.44;5111025;28;19953;-76
2021/08/20 10:24:26;;;;;;;;;;;;;;;23.47;51.38;96525.19;5111244;28;19969;-76
2021/08/20 10:26:55;;;;;;;;;;;;;;;23.53;51.33;96534.69;5111660;28;19969;-76
2021/08/20 10:29:25;;;;;;;;;;;;;;;23.35;49.25;96514.19;5111393;28;20417;-77
2021/08/20 10:31:52;;;;;;;;;;;;;;;23.31;49.80;96514.00;5111392;28;19978;-76
2021/08/20 10:34:30;;;;;;;;;;;;;;;23.08;49.65;96529.16;5111150;28;19979;-76
2021/08/20 10:37:13;;;;;;;;;;;;;;;22.93;51.73;96543.59;5110975;28;19954;-76
2021/08/20 10:39:49;;;;;;;;;;;;;;;22.90;53.09;96547.63;5111396;28;19969;-76
2021/08/20 10:42:17;;;;;;;;;;;;;;;22.91;50.53;96527.03;5110387;28;20443;-76
2021/08/20 10:45:08;;;;;;;;;;;;;;;23.07;50.74;96525.69;5111790;27;20340;-76
2021/08/20 10:47:46;;;;;;;;;;;;;;;23.25;52.21;96542.75;5091808;28;20427;-76
2021/08/20 10:50:36;;;;;;;;;;;;;;;23.55;47.73;96499.63;5111650;27;19962;-76
2021/08/20 10:53:22;;;;;;;;;;;;;;;23.69;48.66;96516.44;5111621;27;19973;-76
2021/08/20 10:56:30;;;;;;;;;;;;;;;23.60;49.90;96521.72;5112393;27;19958;-76
2021/08/20 10:59:29;;;;;;;;;;;;;;;23.21;48.31;96517.69;5123871;27;20036;-76
2021/08/20 11:02:19;;;;;;;;;;;;;;;23.18;50.63;96537.00;5091472;28;19972;-76
2021/08/20 11:05:01;;;;;;;;;;;;;;;23.24;48.63;96519.75;5111649;27;19962;-76
2021/08/20 11:07:39;;;;;;;;;;;;;;;23.24;49.29;96522.41;5111593;27;20303;-76
2021/08/20 11:10:16;;;;;;;;;;;;;;;23.43;50.41;96527.66;5111849;27;20352;-76
2021/08/20 11:12:53;;;;;;;;;;;;;;;23.62;48.47;96513.38;5091193;28;19968;-76
2021/08/20 11:15:31;;;;;;;;;;;;;;;23.83;49.81;96522.59;5132170;27;19992;-76
2021/08/20 11:18:09;;;;;;;;;;;;;;;24.10;50.15;96521.72;5112414;27;20007;-76
2021/08/20 11:20:49;;;;;;;;;;;;;;;24.24;49.52;96518.19;5126852;27;20449;-76
2021/08/20 11:23:34;;;;;;;;;;;;;;;24.30;49.71;96519.66;5111995;28;19960;-75
2021/08/20 11:26:26;;;;;;;;;;;;;;;24.30;47.29;96511.63;5091427;28;19973;-77
2021/08/20 11:29:05;;;;;;;;;;;;;;;24.32;49.64;96522.84;5112097;27;19980;-75
2021/08/20 11:31:43;;;;;;;;;;;;;;;24.33;48.47;96511.00;5111898;27;19982;-75
2021/08/20 11:34:09;;;;;;;;;;;;;;;24.33;50.18;96526.28;5111546;28;19970;-76
2021/08/20 11:36:39;;;;;;;;;;;;;;;24.34;50.07;96526.00;5111773;28;20315;-76
2021/08/20 11:39:09;;;;;;;;;;;;;;;24.41;50.65;96530.94;5111764;28;20411;-76
2021/08/20 11:41:38;;;;;;;;;;;;;;;24.42;49.76;96525.28;5111368;28;19961;-76
2021/08/20 11:44:05;;;;;;;;;;;;;;;24.37;49.35;96525.38;5111001;28;19965;-76
2021/08/20 11:46:41;;;;;;;;;;;;;;;24.29;49.38;96518.84;5111593;28;19956;-76
2021/08/20 11:49:08;;;;;;;;;;;;;;;24.22;49.63;96518.50;5099983;28;19958;-76
2021/08/20 11:51:35;;;;;;;;;;;;;;;24.17;50.05;96529.34;5111157;28;19972;-76
2021/08/20 11:54:03;;;;;;;;;;;;;;;24.06;50.26;96526.09;5111162;28;19956;-76
2021/08/20 11:56:29;;;;;;;;;;;;;;;23.89;50.39;96520.59;5111245;28;20327;-76
2021/08/20 11:58:56;;;;;;;;;;;;;;;23.70;50.64;96529.50;5110970;28;19958;-77
2021/08/20 12:01:27;;;;;;;;;;;;;;;23.58;51.29;96537.28;5111171;28;19977;-76
2021/08/20 12:03:54;;;;;;;;;;;;;;;23.50;52.43;96543.34;5111423;28;19966;-77
2021/08/20 12:06:20;;;;;;;;;;;;;;;23.42;52.73;96546.72;5110843;28;19957;-76
2021/08/20 12:08:47;;;;;;;;;;;;;;;23.41;51.21;96529.84;5108939;28;19961;-76
2021/08/20 12:11:13;;;;;;;;;;;;;;;23.58;51.76;96539.97;5110353;28;19977;-76
2021/08/20 12:13:42;;;;;;;;;;;;;;;23.93;51.40;96531.50;5110871;28;20032;-77
2021/08/20 12:16:08;;;;;;;;;;;;;;;24.08;50.42;96525.78;5110875;28;19975;-77
2021/08/20 12:18:39;;;;;;;;;;;;;;;24.04;50.27;96522.13;5110785;28;20417;-77
2021/08/20 12:21:12;;;;;;;;;;;;;;;23.97;51.11;96535.16;5110781;28;20042;-76
2021/08/20 12:23:54;;;;;;;;;;;;;;;24.12;50.56;96524.09;5102397;28;20334;-76
2021/08/20 12:26:20;;;;;;;;;;;;;;;24.49;49.79;96522.97;5111022;28;19965;-78
2021/08/20 12:28:46;;;;;;;;;;;;;;;24.84;49.31;96525.06;5110494;28;19964;-77
2021/08/20 12:31:12;;;;;;;;;;;;;;;25.12;44.96;96499.63;5109849;28;19989;-76
2021/08/20 12:33:55;;;;;;;;;;;;;;;25.28;44.99;96508.09;5110456;28;19970;-76
2021/08/20 12:36:21;;;;;;;;;;;;;;;25.39;46.15;96540.81;5097395;28;19962;-76
2021/08/20 12:38:47;;;;;;;;;;;;;;;25.68;46.31;96536.75;5110437;28;19966;-77
2021/08/20 12:41:25;;;;;;;;;;;;;;;25.93;45.31;96529.84;5107276;28;19960;-76
2021/08/20 12:43:51;;;;;;;;;;;;;;;26.18;46.73;96530.19;5096773;28;20449;-75
2021/08/20 12:46:21;;;;;;;;;;;;;;;26.16;45.24;96530.50;5096758;28;19960;-76
2021/08/20 12:48:53;;;;;;;;;;;;;;;26.05;45.93;96540.78;5096743;28;19977;-77
2021/08/20 12:51:20;;;;;;;;;;;;;;;25.89;45.64;96540.47;5096994;28;20343;-76
2021/08/20 12:53:59;;;;;;;;;;;;;;;25.71;45.92;96542.28;5096410;28;19958;-77
2021/08/20 12:56:29;;;;;;;;;;;;;;;25.53;46.54;96548.72;5096172;28;19963;-75
2021/08/20 12:58:58;;;;;;;;;;;;;;;25.37;46.79;96550.28;5096787;28;20000;-75
2021/08/20 13:01:24;;;;;;;;;;;;;;;25.39;46.80;96543.47;5084678;28;19983;-75
2021/08/20 13:03:50;;;;;;;;;;;;;;;25.57;46.35;96549.69;5095765;28;19965;-75
2021/08/20 13:06:16;;;;;;;;;;;;;;;25.79;46.71;96550.69;5096201;28;19957;-74
2021/08/20 13:08:42;;;;;;;;;;;;;;;25.82;45.80;96534.72;5096456;28;20463;-75
2021/08/20 13:11:08;;;;;;;;;;;;;;;25.80;44.83;96530.78;5095916;28;19985;-75
2021/08/20 13:13:34;;;;;;;;;;;;;;;25.68;44.99;96537.56;5095679;28;19969;-75
2021/08/20 13:16:00;;;;;;;;;;;;;;;25.42;43.83;96536.69;5096357;28;19993;-75
2021/08/20 13:18:26;;;;;;;;;;;;;;;25.28;46.52;96561.75;5095993;28;19952;-75
2021/08/20 13:20:53;;;;;;;;;;;;;;;25.40;47.06;96555.00;5096311;28;19962;-75
2021/08/20 13:23:19;;;;;;;;;;;;;;;25.64;44.98;96533.91;5095840;28;19988;-75
2021/08/20 13:25:45;;;;;;;;;;;;;;;25.95;45.09;96535.72;5095776;28;19965;-75
2021/08/20 13:28:11;;;;;;;;;;;;;;;26.16;44.16;96535.88;5096088;28;19988;-75